Rossville, Pennsylvania
Current Conditions -  °F | °C
As of 6:53 AM on Saturday 20 Dec 2014 (Local Time) from KTHV Reporting Station
Overcast Overcast  
Wind Chill: 22°   Ceiling: 2800
Heat Index: 28°   Visibility: 10mi
Dew Point: 20°   Wind: 6mph
Humidity: 72%   Direction: 280°W
Pressure: 30.27"   Gusts: NA
Location:  40.06°N, 76.91°W
Report Text: KTHV 201153Z AUTO 28005KT 10SM OVC028 M02/M07 A3027 RMK AO2 SLP259 T10221067 11011 21044 53013
Loading
Personal Weather Stations






























Interactive Weather Map New forecast layout! Learn more

10-Day Weather Forecast

Advertisements
Track Severe Weather on mobile